Time;durP1;ratioP1;P1;durP2;ratioP2;P2;SDS_P1;SDS_P2;PMS_P1;PMS_P2;Temp;Humidity;BMP_temperature;BMP_pressure;BME280_temperature;BME280_humidity;BME280_pressure;Samples;Min_cycle;Max_cycle;Signal;HPM_P1;HPM_P2
2022/01/03 00:01:40;;;;;;;5.82;1.52;;;13.60;99.90;;;;;;5074311;28;20283;-70
2022/01/03 00:04:10;;;;;;;6.05;1.63;;;13.50;99.90;;;;;;5074662;28;20175;-70
2022/01/03 00:06:38;;;;;;;5.93;1.60;;;13.50;99.90;;;;;;5075441;28;20270;-69
2022/01/03 00:09:05;;;;;;;8.90;1.88;;;13.50;99.90;;;;;;5072286;28;20340;-70
2022/01/03 00:11:33;;;;;;;7.43;1.80;;;13.40;99.90;;;;;;5073818;28;20263;-70
2022/01/03 00:13:59;;;;;;;5.32;1.40;;;13.40;99.90;;;;;;5073260;28;20172;-70
2022/01/03 00:16:27;;;;;;;7.22;1.50;;;13.40;99.90;;;;;;5072294;28;20214;-70
2022/01/03 00:18:53;;;;;;;7.38;1.98;;;13.40;99.90;;;;;;5076405;28;20172;-68
2022/01/03 00:21:23;;;;;;;6.35;1.40;;;13.40;99.90;;;;;;5074661;28;20191;-71
2022/01/03 00:23:51;;;;;;;7.43;1.98;;;13.40;99.90;;;;;;5070009;28;20257;-67
2022/01/03 00:26:25;;;;;;;4.60;1.13;;;13.30;99.90;;;;;;5104136;28;20180;-70
2022/01/03 00:28:57;;;;;;;5.88;1.45;;;13.30;99.90;;;;;;5075775;28;20211;-69
2022/01/03 00:31:32;;;;;;;5.55;1.25;;;13.30;99.90;;;;;;5073173;28;20207;-71
2022/01/03 00:34:00;;;;;;;5.18;1.60;;;13.20;99.90;;;;;;5071094;28;20168;-68
2022/01/03 00:36:28;;;;;;;6.38;1.38;;;13.20;99.90;;;;;;5110164;28;20179;-70
2022/01/03 00:38:57;;;;;;;7.65;1.60;;;13.10;99.90;;;;;;5071546;28;20176;-69
2022/01/03 00:41:26;;;;;;;6.88;1.65;;;13.10;99.90;;;;;;5074996;28;20192;-69
2022/01/03 00:43:54;;;;;;;6.03;1.50;;;13.10;99.90;;;;;;5077015;28;20197;-70
2022/01/03 00:46:19;;;;;;;3.55;1.30;;;13.10;99.90;;;;;;5073234;28;20348;-69
2022/01/03 00:48:45;;;;;;;3.38;1.13;;;13.00;99.90;;;;;;5076834;28;20202;-70
2022/01/03 00:51:14;;;;;;;4.93;1.42;;;13.00;99.90;;;;;;5072405;28;20195;-67
2022/01/03 00:53:40;;;;;;;5.03;1.40;;;13.00;99.90;;;;;;5078434;28;20320;-70
2022/01/03 00:56:13;;;;;;;7.13;1.83;;;13.00;99.90;;;;;;5077680;28;20187;-70
2022/01/03 00:58:51;;;;;;;7.32;1.75;;;13.00;99.90;;;;;;5078673;28;20290;-70
2022/01/03 01:01:21;;;;;;;4.90;1.52;;;12.90;99.90;;;;;;5076737;28;20196;-70
2022/01/03 01:03:51;;;;;;;6.20;1.38;;;12.90;99.90;;;;;;5083182;28;20187;-70
2022/01/03 01:06:20;;;;;;;6.80;1.70;;;12.90;99.90;;;;;;5077577;28;20199;-69
2022/01/03 01:08:50;;;;;;;6.90;1.38;;;12.90;99.90;;;;;;5077333;28;20196;-70
2022/01/03 01:11:16;;;;;;;9.35;2.10;;;12.90;99.90;;;;;;5078347;28;20176;-69
2022/01/03 01:13:44;;;;;;;4.97;1.58;;;12.90;99.90;;;;;;5072884;28;20862;-70
2022/01/03 01:16:10;;;;;;;4.47;1.50;;;12.90;99.90;;;;;;5076104;28;20172;-70
2022/01/03 01:18:37;;;;;;;6.43;1.75;;;12.90;99.90;;;;;;5077032;28;20298;-63
2022/01/03 01:21:08;;;;;;;5.38;1.35;;;12.90;99.90;;;;;;5081054;28;20259;-69
2022/01/03 01:23:34;;;;;;;6.03;1.58;;;12.90;99.90;;;;;;5076999;28;20225;-66
2022/01/03 01:28:45;;;;;;;4.32;1.65;;;12.90;99.90;;;;;;5086569;28;20229;-69
2022/01/03 01:31:12;;;;;;;4.30;1.40;;;12.90;99.90;;;;;;5110299;28;20188;-70
2022/01/03 01:33:39;;;;;;;6.35;1.80;;;12.90;99.90;;;;;;5080855;28;20240;-70
2022/01/03 01:36:06;;;;;;;8.30;1.70;;;12.90;99.90;;;;;;5074002;28;20249;-67
2022/01/03 01:38:35;;;;;;;5.30;1.50;;;12.90;99.90;;;;;;5084008;28;20199;-70
2022/01/03 01:41:04;;;;;;;6.22;1.40;;;12.80;99.90;;;;;;5075565;28;20184;-69
2022/01/03 01:43:44;;;;;;;5.43;1.40;;;12.80;99.90;;;;;;5087327;28;20183;-70
2022/01/03 01:46:16;;;;;;;6.75;1.40;;;12.80;99.90;;;;;;5079318;28;20176;-69
2022/01/03 01:48:47;;;;;;;6.68;1.50;;;12.80;99.90;;;;;;5076817;28;20200;-70
2022/01/03 01:51:15;;;;;;;6.85;1.55;;;12.80;99.90;;;;;;5074833;28;20168;-70
2022/01/03 01:53:47;;;;;;;5.90;1.30;;;12.80;99.90;;;;;;5075483;28;20199;-70
2022/01/03 01:56:28;;;;;;;3.97;1.30;;;12.80;99.90;;;;;;5110792;27;20176;-71
2022/01/03 01:59:11;;;;;;;6.40;1.30;;;12.80;99.90;;;;;;5073190;28;20188;-66
2022/01/03 02:01:50;;;;;;;6.70;1.80;;;12.80;99.90;;;;;;5077330;28;20286;-67
2022/01/03 02:04:43;;;;;;;3.85;1.05;;;12.70;99.90;;;;;;5081019;28;20221;-71
2022/01/03 02:07:34;;;;;;;5.05;1.45;;;12.70;99.90;;;;;;5075885;28;20249;-67
2022/01/03 02:10:03;;;;;;;5.20;1.20;;;12.60;99.90;;;;;;5088829;28;20750;-69
2022/01/03 02:12:42;;;;;;;2.42;0.90;;;12.60;99.90;;;;;;5106313;27;20180;-70
2022/01/03 02:15:14;;;;;;;4.20;1.05;;;12.60;99.90;;;;;;5075950;28;20351;-70
2022/01/03 02:17:44;;;;;;;3.08;0.90;;;12.60;99.90;;;;;;5075852;28;20237;-68
2022/01/03 02:20:17;;;;;;;2.25;0.80;;;12.60;99.90;;;;;;5075645;28;20217;-69
2022/01/03 02:22:47;;;;;;;3.15;0.80;;;12.50;99.90;;;;;;5075650;28;20184;-69
2022/01/03 02:25:17;;;;;;;2.08;0.70;;;12.50;99.90;;;;;;5107390;27;20195;-71
2022/01/03 02:27:49;;;;;;;4.85;0.90;;;12.50;99.90;;;;;;5082687;28;20184;-69
2022/01/03 02:30:21;;;;;;;1.42;0.55;;;12.50;99.90;;;;;;5071707;28;20199;-70
2022/01/03 02:32:51;;;;;;;3.60;0.88;;;12.50;99.90;;;;;;5070888;28;20183;-69
2022/01/03 02:35:17;;;;;;;3.05;0.88;;;12.50;99.90;;;;;;5075314;28;20195;-67
2022/01/03 02:37:45;;;;;;;4.00;0.85;;;12.50;99.90;;;;;;5072886;28;20184;-65
2022/01/03 02:40:11;;;;;;;2.80;0.90;;;12.40;99.90;;;;;;5066576;28;20207;-70
2022/01/03 02:42:41;;;;;;;4.70;1.13;;;12.40;99.90;;;;;;5069455;28;20239;-69
2022/01/03 02:45:19;;;;;;;2.30;0.90;;;12.40;99.90;;;;;;5073366;28;20205;-69
2022/01/03 02:47:50;;;;;;;3.10;1.10;;;12.40;99.90;;;;;;5065574;28;20175;-67
2022/01/03 02:50:18;;;;;;;1.67;0.77;;;12.40;99.90;;;;;;5075695;28;20218;-69
2022/01/03 02:52:44;;;;;;;2.38;0.70;;;12.40;99.90;;;;;;5079245;28;20207;-70
2022/01/03 02:55:13;;;;;;;2.63;1.00;;;12.30;99.90;;;;;;5074782;28;20184;-69
2022/01/03 02:57:44;;;;;;;3.25;0.90;;;12.30;99.90;;;;;;5105961;28;20255;-68
2022/01/03 03:00:28;;;;;;;4.68;1.00;;;12.30;99.90;;;;;;5080206;28;20175;-70
2022/01/03 03:02:57;;;;;;;3.00;0.70;;;12.30;99.90;;;;;;5068156;28;20231;-69
2022/01/03 03:05:23;;;;;;;3.53;0.90;;;12.20;99.90;;;;;;5073722;28;20176;-70
2022/01/03 03:07:53;;;;;;;3.63;1.00;;;12.20;99.90;;;;;;5078767;28;20213;-67
2022/01/03 03:10:21;;;;;;;4.88;1.00;;;12.20;99.90;;;;;;5075189;28;20215;-69
2022/01/03 03:12:47;;;;;;;4.22;1.10;;;12.20;99.90;;;;;;5078958;28;20184;-70
2022/01/03 03:15:14;;;;;;;5.13;1.30;;;12.10;99.90;;;;;;5079987;28;20172;-68
2022/01/03 03:17:47;;;;;;;3.65;1.20;;;12.10;99.90;;;;;;5075026;28;20201;-70
2022/01/03 03:20:34;;;;;;;5.30;1.00;;;12.00;99.90;;;;;;5070276;28;20176;-68
2022/01/03 03:23:00;;;;;;;4.85;1.10;;;12.10;99.90;;;;;;5075698;28;20180;-70
2022/01/03 03:25:34;;;;;;;5.03;1.55;;;12.00;99.90;;;;;;5072222;28;20184;-69
2022/01/03 03:28:09;;;;;;;6.38;1.27;;;12.00;99.90;;;;;;5076702;28;20184;-70
2022/01/03 03:30:36;;;;;;;3.80;1.30;;;12.00;99.90;;;;;;5069677;28;20288;-68
2022/01/03 03:33:13;;;;;;;5.18;1.17;;;12.00;99.90;;;;;;5077890;28;20168;-70
2022/01/03 03:35:41;;;;;;;5.97;1.23;;;12.00;99.90;;;;;;5105812;27;20179;-69
2022/01/03 03:38:07;;;;;;;4.13;1.40;;;12.00;99.90;;;;;;5073398;28;20208;-70
2022/01/03 03:40:33;;;;;;;5.70;1.13;;;12.00;99.90;;;;;;5072881;28;20221;-70
2022/01/03 03:43:01;;;;;;;4.47;1.00;;;12.00;99.90;;;;;;5076207;28;20263;-68
2022/01/03 03:45:29;;;;;;;3.67;0.88;;;12.00;99.90;;;;;;5070566;28;20211;-70
2022/01/03 03:47:59;;;;;;;4.68;1.10;;;12.00;99.90;;;;;;5074864;28;20546;-70
2022/01/03 03:50:28;;;;;;;3.90;1.20;;;11.90;99.90;;;;;;5074294;28;20203;-70
2022/01/03 03:52:53;;;;;;;5.07;1.10;;;11.90;99.90;;;;;;5073624;28;20196;-69
2022/01/03 03:55:22;;;;;;;1.60;0.80;;;11.90;99.90;;;;;;5074230;28;20261;-68
2022/01/03 03:57:49;;;;;;;4.15;1.15;;;11.90;99.90;;;;;;5076887;28;20179;-69
2022/01/03 04:00:17;;;;;;;3.95;0.90;;;11.90;99.90;;;;;;5074632;28;20180;-68
2022/01/03 04:02:43;;;;;;;4.53;1.17;;;11.90;99.90;;;;;;5075682;28;20399;-70
2022/01/03 04:05:09;;;;;;;2.83;1.00;;;11.90;99.90;;;;;;5074087;28;20418;-69
2022/01/03 04:07:37;;;;;;;2.35;0.88;;;11.90;99.90;;;;;;5074497;28;20198;-68
2022/01/03 04:10:11;;;;;;;3.50;0.77;;;11.90;99.90;;;;;;5073746;28;20195;-70
2022/01/03 04:12:37;;;;;;;5.07;0.98;;;11.90;99.90;;;;;;5072005;28;20200;-67
2022/01/03 04:15:06;;;;;;;4.68;0.98;;;11.80;99.90;;;;;;5071851;28;20183;-70
2022/01/03 04:17:31;;;;;;;4.55;0.98;;;11.80;99.90;;;;;;5075760;28;20186;-70
2022/01/03 04:20:03;;;;;;;2.42;0.80;;;11.80;99.90;;;;;;5071297;28;20195;-67
2022/01/03 04:22:29;;;;;;;4.78;1.20;;;11.80;99.90;;;;;;5070524;28;20373;-68
2022/01/03 04:24:57;;;;;;;3.42;0.88;;;11.70;99.90;;;;;;5072014;28;20292;-69
2022/01/03 04:27:23;;;;;;;2.60;1.00;;;11.70;99.90;;;;;;5103013;28;20192;-69
2022/01/03 04:29:51;;;;;;;3.20;1.00;;;11.70;99.90;;;;;;5072963;28;20313;-70
2022/01/03 04:32:21;;;;;;;5.45;0.93;;;11.70;99.90;;;;;;5071870;28;20259;-68
2022/01/03 04:34:47;;;;;;;3.60;0.95;;;11.60;99.90;;;;;;5072094;28;20180;-70
2022/01/03 04:37:14;;;;;;;3.20;0.93;;;11.60;99.90;;;;;;5076544;28;20172;-70
2022/01/03 04:39:40;;;;;;;3.60;0.98;;;11.60;99.90;;;;;;5072976;28;20277;-65
2022/01/03 04:42:06;;;;;;;3.67;1.02;;;11.60;99.90;;;;;;5073305;28;20172;-69
2022/01/03 04:44:36;;;;;;;2.17;1.02;;;11.60;99.90;;;;;;5070926;28;20230;-69
2022/01/03 04:47:02;;;;;;;3.95;1.00;;;11.60;99.90;;;;;;5075589;28;20208;-70
2022/01/03 04:49:28;;;;;;;6.13;1.10;;;11.60;99.90;;;;;;5073332;28;20200;-69
2022/01/03 04:51:58;;;;;;;1.92;0.80;;;11.50;99.90;;;;;;5070894;28;20246;-70
2022/01/03 04:54:24;;;;;;;4.07;1.08;;;11.50;99.90;;;;;;5063933;28;20249;-70
2022/01/03 04:56:57;;;;;;;2.88;0.95;;;11.50;99.90;;;;;;5070001;28;20172;-70
2022/01/03 04:59:25;;;;;;;4.00;0.90;;;11.50;99.90;;;;;;5069202;28;20184;-69
2022/01/03 05:01:51;;;;;;;2.78;0.93;;;11.50;99.90;;;;;;5076613;28;20299;-69
2022/01/03 05:04:19;;;;;;;5.38;1.00;;;11.50;99.90;;;;;;5073535;28;20267;-71
2022/01/03 05:06:44;;;;;;;4.03;0.98;;;11.40;99.90;;;;;;5072408;28;20207;-70
2022/01/03 05:09:10;;;;;;;3.00;1.10;;;11.40;99.90;;;;;;5073846;28;20219;-69
2022/01/03 05:11:35;;;;;;;3.72;1.40;;;11.40;99.90;;;;;;5074680;28;20274;-68
2022/01/03 05:14:01;;;;;;;4.43;1.45;;;11.40;99.90;;;;;;5075011;28;20470;-60
2022/01/03 05:16:27;;;;;;;3.40;1.10;;;11.30;99.90;;;;;;5068586;28;20180;-65
2022/01/03 05:18:52;;;;;;;2.25;0.88;;;11.30;99.90;;;;;;5079799;28;20270;-66
2022/01/03 05:21:19;;;;;;;4.50;2.00;;;11.30;99.90;;;;;;5077516;28;20184;-66
2022/01/03 05:23:45;;;;;;;3.30;1.48;;;11.30;99.90;;;;;;5075360;28;20183;-66
2022/01/03 05:26:12;;;;;;;4.55;1.45;;;11.30;99.90;;;;;;5077175;28;20203;-67
2022/01/03 05:28:38;;;;;;;3.22;1.27;;;11.20;99.90;;;;;;5066874;28;20201;-66
2022/01/03 05:31:04;;;;;;;4.60;1.10;;;11.20;99.90;;;;;;5105002;28;20192;-64
2022/01/03 05:33:29;;;;;;;10.52;7.00;;;11.20;99.90;;;;;;5079326;28;20169;-67
2022/01/03 05:35:55;;;;;;;12.95;7.35;;;11.20;99.90;;;;;;5075717;28;20278;-66
2022/01/03 05:38:20;;;;;;;8.63;4.07;;;11.10;99.90;;;;;;5071979;28;20183;-67
2022/01/03 05:40:48;;;;;;;6.20;3.25;;;11.10;99.90;;;;;;5077039;28;20188;-66
2022/01/03 05:43:16;;;;;;;7.22;2.45;;;11.10;99.90;;;;;;5076213;28;20480;-66
2022/01/03 05:45:42;;;;;;;4.85;1.70;;;11.10;99.90;;;;;;5076769;28;20184;-66
2022/01/03 05:48:07;;;;;;;5.82;1.65;;;11.10;99.90;;;;;;5085068;28;20195;-67
2022/01/03 05:50:33;;;;;;;3.30;1.20;;;11.10;99.90;;;;;;5074334;28;20204;-66
2022/01/03 05:53:01;;;;;;;4.97;1.50;;;11.10;99.90;;;;;;5077471;28;20184;-66
2022/01/03 05:55:31;;;;;;;5.03;1.70;;;11.10;99.90;;;;;;5107926;28;20195;-67
2022/01/03 05:57:57;;;;;;;4.63;1.40;;;11.10;99.90;;;;;;5080664;28;20183;-66
2022/01/03 06:00:25;;;;;;;5.00;1.02;;;11.10;99.90;;;;;;5073542;28;20184;-65
2022/01/03 06:02:55;;;;;;;4.05;1.10;;;11.10;99.90;;;;;;5077071;28;20176;-66
2022/01/03 06:08:16;;;;;;;3.33;1.38;;;11.20;99.90;;;;;;5048184;28;20192;-65
2022/01/03 06:10:42;;;;;;;4.63;1.00;;;11.20;99.90;;;;;;5076621;28;20212;-66
2022/01/03 06:13:08;;;;;;;6.70;3.42;;;11.20;99.90;;;;;;5078756;28;20168;-65
2022/01/03 06:15:39;;;;;;;5.82;1.92;;;11.20;99.90;;;;;;5075468;28;20187;-67
2022/01/03 06:18:11;;;;;;;5.82;1.50;;;11.30;99.90;;;;;;5073993;28;20180;-66
2022/01/03 06:20:42;;;;;;;4.82;1.30;;;11.30;99.90;;;;;;5075844;28;20184;-68
2022/01/03 06:23:11;;;;;;;8.10;1.73;;;11.30;99.90;;;;;;5066443;28;20200;-65
2022/01/03 06:25:40;;;;;;;3.92;1.60;;;11.20;99.90;;;;;;5076328;28;20218;-67
2022/01/03 06:28:07;;;;;;;8.15;1.30;;;11.30;99.90;;;;;;5076605;28;20168;-65
2022/01/03 06:30:45;;;;;;;4.35;1.20;;;11.30;99.90;;;;;;5074595;28;20212;-68
2022/01/03 06:33:11;;;;;;;4.07;1.50;;;11.30;99.90;;;;;;5075320;28;20176;-67
2022/01/03 06:35:37;;;;;;;5.70;1.20;;;11.30;99.90;;;;;;5080133;28;20168;-67
2022/01/03 06:38:04;;;;;;;5.63;1.40;;;11.30;99.90;;;;;;5081794;28;20188;-66
2022/01/03 06:40:37;;;;;;;5.90;1.10;;;11.30;99.90;;;;;;5107128;28;20187;-65
2022/01/03 06:43:05;;;;;;;3.65;0.90;;;11.40;99.90;;;;;;5076458;28;20190;-66
2022/01/03 06:45:33;;;;;;;4.13;0.98;;;11.40;99.90;;;;;;5067981;28;20200;-64
2022/01/03 06:47:58;;;;;;;5.57;1.40;;;11.50;99.90;;;;;;5075394;28;20180;-67
2022/01/03 06:50:24;;;;;;;6.50;1.33;;;11.50;99.90;;;;;;5072623;28;20264;-66
2022/01/03 06:52:52;;;;;;;4.43;1.17;;;11.60;99.90;;;;;;5069940;28;20200;-67
2022/01/03 06:55:18;;;;;;;4.88;1.10;;;11.60;99.90;;;;;;5078607;28;20179;-66
2022/01/03 06:57:43;;;;;;;6.00;1.30;;;11.60;99.90;;;;;;5076995;28;20175;-66
2022/01/03 07:00:09;;;;;;;5.18;1.40;;;11.70;99.90;;;;;;5074439;28;20188;-67
2022/01/03 07:02:42;;;;;;;6.60;1.70;;;11.80;99.90;;;;;;5074061;28;20193;-67
2022/01/03 07:05:15;;;;;;;5.13;1.85;;;11.80;99.90;;;;;;5074569;28;21702;-68
2022/01/03 07:07:41;;;;;;;7.88;1.45;;;11.80;99.90;;;;;;5072963;28;20179;-70
2022/01/03 07:10:10;;;;;;;6.05;1.70;;;11.80;99.90;;;;;;5100552;28;20211;-67
2022/01/03 07:12:40;;;;;;;4.05;1.35;;;11.80;99.90;;;;;;5072338;28;20200;-67
2022/01/03 07:20:45;;;;;;;4.60;1.50;;;11.70;99.90;;;;;;5090915;28;20219;-68
2022/01/03 07:23:14;;;;;;;4.18;1.10;;;11.70;99.90;;;;;;5071743;28;20195;-65
2022/01/03 07:25:40;;;;;;;5.30;1.55;;;11.60;99.90;;;;;;5091490;28;20184;-64
2022/01/03 07:28:07;;;;;;;4.50;1.23;;;11.60;99.90;;;;;;5075560;28;20236;-66
2022/01/03 07:30:35;;;;;;;3.72;1.30;;;11.60;99.90;;;;;;5073851;28;20204;-66
2022/01/03 07:33:03;;;;;;;4.75;1.30;;;11.50;99.90;;;;;;5076029;28;20286;-65
2022/01/03 07:35:30;;;;;;;4.15;1.30;;;11.50;99.90;;;;;;5072625;28;20446;-65
2022/01/03 07:38:00;;;;;;;3.97;1.05;;;11.40;99.90;;;;;;5075552;28;20172;-67
2022/01/03 07:40:26;;;;;;;4.65;1.48;;;11.40;99.90;;;;;;5072443;28;20206;-65
2022/01/03 07:42:52;;;;;;;5.00;1.40;;;11.40;99.90;;;;;;5072115;28;20251;-65
2022/01/03 07:45:18;;;;;;;4.18;1.08;;;11.40;99.90;;;;;;5068616;28;20176;-66
2022/01/03 07:47:43;;;;;;;4.25;1.27;;;11.40;99.90;;;;;;5105224;27;20180;-67
2022/01/03 07:50:12;;;;;;;6.32;1.60;;;11.40;99.90;;;;;;5078456;28;20220;-66
2022/01/03 07:52:38;;;;;;;3.33;1.17;;;11.40;99.90;;;;;;5076844;28;20227;-67
2022/01/03 07:55:08;;;;;;;3.70;1.00;;;11.40;99.90;;;;;;5068709;28;20172;-66
2022/01/03 07:57:35;;;;;;;5.18;1.35;;;11.50;99.90;;;;;;5108454;28;20164;-67
2022/01/03 08:00:03;;;;;;;4.00;1.15;;;11.50;99.90;;;;;;5079192;28;20196;-67
2022/01/03 08:02:29;;;;;;;3.03;1.00;;;11.50;99.90;;;;;;5077462;28;20184;-67
2022/01/03 08:04:55;;;;;;;3.75;1.30;;;11.50;99.90;;;;;;5077870;28;20258;-67
2022/01/03 08:07:20;;;;;;;8.10;1.27;;;11.50;99.90;;;;;;5071078;28;20204;-65
2022/01/03 08:09:46;;;;;;;7.38;1.38;;;11.50;99.90;;;;;;5070769;28;20354;-67
2022/01/03 08:12:12;;;;;;;3.70;1.10;;;11.60;99.90;;;;;;5072507;28;20241;-67
2022/01/03 08:14:40;;;;;;;4.13;1.13;;;11.60;99.90;;;;;;5069452;28;20183;-67
2022/01/03 08:17:05;;;;;;;5.93;1.02;;;11.60;99.90;;;;;;5073402;28;20181;-68
2022/01/03 08:19:32;;;;;;;4.78;1.50;;;11.60;99.90;;;;;;5067353;28;20241;-66
2022/01/03 08:21:59;;;;;;;4.00;1.60;;;11.60;99.90;;;;;;5106033;28;20401;-65
2022/01/03 08:24:28;;;;;;;6.78;1.65;;;11.60;99.90;;;;;;5069706;28;20180;-65
2022/01/03 08:26:54;;;;;;;5.32;1.60;;;11.60;99.90;;;;;;5074998;28;20200;-67
2022/01/03 08:29:20;;;;;;;5.70;1.50;;;11.70;99.90;;;;;;5072533;28;20196;-63
2022/01/03 08:31:46;;;;;;;6.25;1.25;;;11.70;99.90;;;;;;5081216;28;20186;-65
2022/01/03 08:34:12;;;;;;;4.60;1.20;;;11.70;99.90;;;;;;5073979;28;20283;-67
2022/01/03 08:36:38;;;;;;;3.97;1.63;;;11.70;99.90;;;;;;5074582;28;20199;-67
2022/01/03 08:39:06;;;;;;;4.47;1.48;;;11.80;99.90;;;;;;5077919;28;20180;-67
2022/01/03 08:41:32;;;;;;;3.15;1.30;;;11.80;99.90;;;;;;5069901;28;20224;-67
2022/01/03 08:43:58;;;;;;;5.55;1.25;;;11.80;99.90;;;;;;5072159;28;20219;-67
2022/01/03 08:46:26;;;;;;;5.15;1.30;;;11.80;99.90;;;;;;5071702;28;20291;-66
2022/01/03 08:48:56;;;;;;;5.25;1.33;;;11.80;99.90;;;;;;5075226;28;20179;-64
2022/01/03 08:51:22;;;;;;;7.15;1.60;;;11.90;99.90;;;;;;5074594;28;20280;-67
2022/01/03 08:53:48;;;;;;;6.63;1.30;;;11.90;99.90;;;;;;5075877;28;20278;-67
2022/01/03 08:56:14;;;;;;;3.67;1.10;;;11.90;99.90;;;;;;5079789;28;20172;-66
2022/01/03 08:58:39;;;;;;;8.68;1.60;;;11.90;99.90;;;;;;5076641;28;20205;-68
2022/01/03 09:01:08;;;;;;;6.60;1.40;;;12.00;99.90;;;;;;5076951;28;20215;-68
2022/01/03 09:03:38;;;;;;;6.25;1.52;;;12.10;99.90;;;;;;5075806;28;20215;-67
2022/01/03 09:06:06;;;;;;;6.00;1.38;;;12.10;99.90;;;;;;5076686;28;20240;-67
2022/01/03 09:08:34;;;;;;;7.05;1.65;;;12.20;99.90;;;;;;5077800;28;20237;-67
2022/01/03 09:11:00;;;;;;;6.00;1.92;;;12.20;99.90;;;;;;5094177;28;20196;-68
2022/01/03 09:13:28;;;;;;;5.32;1.23;;;12.30;99.90;;;;;;5076445;28;20187;-62
2022/01/03 09:15:56;;;;;;;7.03;1.70;;;12.30;99.90;;;;;;5071610;28;20188;-62
2022/01/03 09:18:26;;;;;;;5.32;1.88;;;12.40;99.90;;;;;;5079503;28;20246;-61
2022/01/03 09:20:52;;;;;;;5.10;1.60;;;12.50;99.90;;;;;;5078432;28;20225;-62
2022/01/03 09:23:24;;;;;;;4.85;1.27;;;12.50;99.90;;;;;;5077457;28;20183;-60
2022/01/03 09:28:53;;;;;;;4.50;1.40;;;12.60;99.90;;;;;;5098203;28;20224;-64
2022/01/03 09:31:29;;;;;;;4.78;1.17;;;12.60;99.90;;;;;;5072434;28;20172;-62
2022/01/03 09:34:00;;;;;;;6.43;1.90;;;12.70;99.90;;;;;;5073798;28;20237;-59
2022/01/03 09:36:28;;;;;;;5.75;1.50;;;12.70;99.90;;;;;;5108383;27;20184;-62
2022/01/03 09:38:58;;;;;;;5.97;1.35;;;12.70;99.90;;;;;;5078078;28;20186;-62
2022/01/03 09:41:27;;;;;;;3.47;1.40;;;12.70;99.90;;;;;;5071969;28;20168;-62
2022/01/03 09:43:58;;;;;;;5.53;1.50;;;12.70;99.90;;;;;;5074983;28;20184;-59
2022/01/03 09:46:33;;;;;;;3.47;1.20;;;12.70;99.90;;;;;;5080570;28;20176;-62
2022/01/03 09:49:03;;;;;;;5.70;1.63;;;12.80;99.90;;;;;;5077239;28;20203;-67
2022/01/03 09:51:32;;;;;;;3.97;1.27;;;12.80;99.90;;;;;;5074232;28;20207;-67
2022/01/03 09:54:07;;;;;;;3.88;1.27;;;12.80;99.90;;;;;;5075982;28;20176;-67
2022/01/03 09:56:35;;;;;;;4.93;1.60;;;12.90;99.90;;;;;;5081409;28;20180;-67
2022/01/03 09:59:02;;;;;;;5.53;1.70;;;12.90;99.90;;;;;;5075100;28;20263;-68
2022/01/03 10:01:30;;;;;;;4.60;1.40;;;12.90;99.90;;;;;;5073322;28;20199;-68
2022/01/03 10:03:59;;;;;;;5.55;1.50;;;13.00;99.90;;;;;;5075912;28;20263;-62
2022/01/03 10:06:28;;;;;;;6.68;1.70;;;13.00;99.90;;;;;;5074010;28;20190;-63
2022/01/03 10:09:00;;;;;;;5.05;1.48;;;13.10;99.90;;;;;;5067582;28;20219;-63
2022/01/03 10:11:28;;;;;;;3.35;1.10;;;13.10;99.90;;;;;;5073385;28;20176;-64
2022/01/03 10:13:53;;;;;;;7.18;1.73;;;13.20;99.90;;;;;;5104789;28;20176;-66
2022/01/03 10:16:21;;;;;;;5.80;1.55;;;13.20;99.90;;;;;;5074007;28;20257;-63
2022/01/03 10:18:50;;;;;;;4.35;1.50;;;13.30;99.90;;;;;;5074580;28;20176;-64
2022/01/03 10:21:39;;;;;;;4.53;1.17;;;13.30;99.90;;;;;;5070598;28;20230;-64
2022/01/03 10:24:10;;;;;;;5.32;1.48;;;13.30;99.90;;;;;;5076499;28;20200;-63
2022/01/03 10:26:38;;;;;;;9.02;1.75;;;13.30;99.90;;;;;;5072421;28;20284;-64
2022/01/03 10:29:16;;;;;;;6.28;1.50;;;13.40;99.90;;;;;;5074521;28;20204;-62
2022/01/03 10:31:43;;;;;;;5.78;1.48;;;13.40;99.90;;;;;;5081127;28;20275;-65
2022/01/03 10:34:14;;;;;;;5.82;1.73;;;13.40;99.90;;;;;;5076394;28;20240;-64
2022/01/03 10:36:42;;;;;;;7.13;1.60;;;13.40;99.90;;;;;;5077201;28;20200;-64
2022/01/03 10:39:24;;;;;;;7.95;2.10;;;13.40;99.90;;;;;;5075475;28;20175;-64
2022/01/03 10:42:14;;;;;;;6.70;1.50;;;13.40;99.90;;;;;;5072185;28;20241;-62
2022/01/03 10:44:43;;;;;;;8.20;1.45;;;13.50;99.90;;;;;;5067573;28;20172;-62
2022/01/03 10:47:15;;;;;;;4.90;1.65;;;13.50;99.90;;;;;;5078537;28;20275;-64
2022/01/03 10:49:43;;;;;;;4.25;1.83;;;13.50;99.90;;;;;;5109108;27;20405;-63
2022/01/03 10:52:28;;;;;;;6.40;1.52;;;13.50;99.90;;;;;;5073069;28;20226;-64
2022/01/03 10:55:25;;;;;;;6.20;1.77;;;13.50;99.90;;;;;;5075419;28;20179;-65
2022/01/03 10:57:57;;;;;;;7.63;1.77;;;13.50;99.90;;;;;;5075339;28;20292;-65
2022/01/03 11:00:28;;;;;;;5.68;1.50;;;13.50;99.90;;;;;;5072664;28;20533;-63
2022/01/03 11:03:18;;;;;;;5.13;1.52;;;13.50;99.90;;;;;;5105959;28;20200;-64
2022/01/03 11:05:52;;;;;;;5.88;1.35;;;13.50;99.90;;;;;;5099365;28;20177;-63
2022/01/03 11:11:06;;;;;;;6.75;1.60;;;13.40;99.90;;;;;;5088498;28;20247;-64
2022/01/03 11:13:41;;;;;;;6.70;1.45;;;13.30;99.90;;;;;;5074853;28;20168;-62
2022/01/03 11:16:10;;;;;;;5.47;1.50;;;13.30;99.90;;;;;;5086315;28;20198;-64
2022/01/03 11:18:47;;;;;;;3.15;1.10;;;13.20;99.90;;;;;;5074486;28;20194;-63
2022/01/03 11:21:18;;;;;;;5.60;1.45;;;13.10;99.90;;;;;;5076000;28;20185;-65
2022/01/03 11:23:47;;;;;;;5.47;1.25;;;13.00;99.90;;;;;;5072852;28;20180;-66
2022/01/03 11:26:14;;;;;;;4.28;1.77;;;13.00;99.90;;;;;;5072091;28;20183;-66
2022/01/03 11:28:40;;;;;;;5.50;1.27;;;12.90;99.90;;;;;;5074055;28;20266;-63
2022/01/03 11:31:09;;;;;;;5.07;1.33;;;12.80;99.90;;;;;;5074855;28;20172;-64
2022/01/03 11:33:35;;;;;;;5.63;1.77;;;12.80;99.90;;;;;;5109135;28;20176;-65
2022/01/03 11:36:02;;;;;;;3.70;1.08;;;12.80;99.90;;;;;;5074705;28;20188;-65
2022/01/03 11:38:33;;;;;;;5.55;1.10;;;12.70;99.90;;;;;;5070723;28;20264;-64
2022/01/03 11:41:04;;;;;;;4.40;0.93;;;12.60;99.90;;;;;;5092981;28;20188;-64
2022/01/03 11:43:37;;;;;;;3.47;0.95;;;12.60;99.90;;;;;;5075017;28;20175;-64
2022/01/03 11:46:09;;;;;;;3.38;1.10;;;12.50;99.90;;;;;;5071041;28;20176;-61
2022/01/03 11:48:38;;;;;;;4.10;1.25;;;12.50;99.90;;;;;;5071154;28;20179;-65
2022/01/03 11:51:10;;;;;;;4.40;1.30;;;12.50;99.90;;;;;;5072725;28;20214;-63
2022/01/03 11:53:45;;;;;;;6.15;1.20;;;12.40;99.90;;;;;;5079815;28;20278;-63
2022/01/03 11:56:24;;;;;;;4.60;0.95;;;12.40;99.90;;;;;;5105474;28;20207;-65
2022/01/03 12:04:41;;;;;;;2.53;1.00;;;12.40;99.90;;;;;;5088742;28;20236;-66
2022/01/03 12:07:14;;;;;;;3.03;0.98;;;12.40;99.90;;;;;;5067706;28;20180;-65
2022/01/03 12:09:50;;;;;;;2.95;1.00;;;12.40;99.90;;;;;;5071571;28;20249;-65
2022/01/03 12:12:28;;;;;;;3.38;1.15;;;12.40;99.90;;;;;;5071859;28;20183;-65
2022/01/03 12:14:57;;;;;;;3.75;1.38;;;12.40;99.90;;;;;;5072178;28;20182;-66
2022/01/03 12:17:40;;;;;;;3.05;1.13;;;12.40;99.90;;;;;;5073178;28;20179;-66
2022/01/03 12:20:06;;;;;;;5.28;1.20;;;12.40;99.90;;;;;;5071945;28;20187;-65
2022/01/03 12:22:54;;;;;;;4.45;1.40;;;12.50;99.90;;;;;;5074198;28;20377;-65
2022/01/03 12:25:29;;;;;;;4.22;1.27;;;12.50;99.90;;;;;;5075192;28;20195;-66
2022/01/03 12:28:00;;;;;;;6.47;1.67;;;12.50;99.90;;;;;;5090989;28;20225;-66
2022/01/03 12:30:33;;;;;;;3.50;1.10;;;12.60;99.90;;;;;;5075632;28;20492;-65
2022/01/03 12:33:05;;;;;;;7.93;2.25;;;12.60;99.90;;;;;;5078498;28;20274;-62
2022/01/03 12:35:33;;;;;;;3.53;1.38;;;12.60;99.90;;;;;;5075739;28;20191;-65
2022/01/03 12:38:05;;;;;;;4.45;1.35;;;12.60;99.90;;;;;;5076988;28;20172;-63
2022/01/03 12:40:53;;;;;;;3.45;1.17;;;12.60;99.90;;;;;;5076630;28;20168;-66
2022/01/03 12:43:33;;;;;;;3.53;1.02;;;12.70;99.90;;;;;;5074567;28;20277;-66
2022/01/03 12:46:02;;;;;;;4.07;1.00;;;12.70;99.90;;;;;;5075307;28;20246;-65
2022/01/03 12:48:32;;;;;;;3.25;1.13;;;12.70;99.90;;;;;;5073873;28;20237;-65
2022/01/03 12:51:02;;;;;;;3.17;1.00;;;12.70;99.90;;;;;;5072634;28;20199;-65
2022/01/03 12:53:27;;;;;;;3.15;0.95;;;12.80;99.90;;;;;;5093527;28;20168;-66
2022/01/03 12:55:54;;;;;;;3.03;1.02;;;12.80;99.90;;;;;;5076532;28;20211;-67
2022/01/03 12:58:20;;;;;;;4.70;1.20;;;12.80;99.90;;;;;;5073835;28;20183;-65
2022/01/03 13:00:48;;;;;;;5.38;1.40;;;12.80;99.90;;;;;;5096748;28;20190;-64
2022/01/03 13:03:24;;;;;;;3.70;1.13;;;12.80;99.90;;;;;;5070732;28;20216;-66
2022/01/03 13:06:11;;;;;;;4.15;1.00;;;12.70;99.90;;;;;;5072934;28;20172;-66
2022/01/03 13:09:06;;;;;;;3.85;0.95;;;12.70;99.90;;;;;;5072758;28;20210;-66
2022/01/03 13:11:44;;;;;;;2.25;0.82;;;12.70;99.90;;;;;;5071245;28;20201;-67
2022/01/03 13:14:24;;;;;;;4.38;1.80;;;12.70;99.90;;;;;;5076135;28;20191;-66
2022/01/03 13:16:58;;;;;;;2.25;1.17;;;12.70;99.90;;;;;;5069013;28;20210;-65
2022/01/03 13:19:34;;;;;;;2.35;1.00;;;12.70;99.90;;;;;;5079145;28;20244;-64
2022/01/03 13:22:10;;;;;;;2.17;0.90;;;12.70;99.90;;;;;;5072604;28;20172;-65
2022/01/03 13:24:49;;;;;;;2.90;0.73;;;12.60;99.90;;;;;;5076305;28;20337;-67